createdAt,value
2019-01-17T00:00:37.366Z,6.09
2019-01-17T00:01:37.405Z,6.12
2019-01-17T00:02:37.445Z,6.12
2019-01-17T00:03:37.477Z,6.14
2019-01-17T00:04:37.516Z,6.09
2019-01-17T00:05:37.550Z,6.18
2019-01-17T00:06:37.587Z,6.11
2019-01-17T00:07:37.626Z,6.14
2019-01-17T00:08:37.661Z,6.09
2019-01-17T00:09:37.701Z,6.12
2019-01-17T00:10:37.737Z,6.11
2019-01-17T00:11:37.772Z,6.17
2019-01-17T00:12:37.813Z,6.21
2019-01-17T00:13:37.847Z,6.19
2019-01-17T00:14:37.883Z,6.22
2019-01-17T00:15:37.939Z,6.18
2019-01-17T00:16:37.958Z,6.19
2019-01-17T00:17:38.000Z,6.21
2019-01-17T00:18:38.034Z,6.22
2019-01-17T00:19:38.076Z,6.25
2019-01-17T00:20:38.107Z,6.28
2019-01-17T00:21:38.149Z,6.34
2019-01-17T00:22:38.179Z,6.18
2019-01-17T00:23:38.217Z,6.21
2019-01-17T00:24:38.253Z,6.25
2019-01-17T00:25:38.298Z,6.33
2019-01-17T00:26:38.328Z,6.37
2019-01-17T00:27:38.365Z,6.36
2019-01-17T00:28:38.403Z,6.43
2019-01-17T00:29:38.437Z,6.33
2019-01-17T00:30:38.474Z,6.18
2019-01-17T00:31:38.515Z,6.34
2019-01-17T00:32:38.553Z,6.37
2019-01-17T00:33:38.597Z,6.37
2019-01-17T00:34:38.624Z,6.40
2019-01-17T00:35:38.660Z,6.34
2019-01-17T00:36:38.698Z,6.37
2019-01-17T00:37:38.735Z,6.31
2019-01-17T00:38:38.770Z,6.36
2019-01-17T00:39:38.806Z,6.37
2019-01-17T00:40:38.846Z,6.41
2019-01-17T00:41:38.890Z,6.36
2019-01-17T00:42:38.921Z,6.36
2019-01-17T00:43:38.962Z,6.37
2019-01-17T00:44:38.993Z,6.40
2019-01-17T00:45:39.030Z,6.38
2019-01-17T00:46:39.065Z,6.31
2019-01-17T00:47:39.103Z,6.36
2019-01-17T00:48:39.149Z,6.37
2019-01-17T00:49:39.177Z,6.43
2019-01-17T00:50:39.217Z,6.40
2019-01-17T00:51:39.252Z,6.31
2019-01-17T00:52:39.297Z,6.36
2019-01-17T00:53:39.326Z,6.38
2019-01-17T00:54:39.361Z,6.48
2019-01-17T00:55:39.399Z,6.44
2019-01-17T00:56:39.445Z,6.44
2019-01-17T00:57:39.473Z,6.41
2019-01-17T00:58:39.515Z,6.44
2019-01-17T00:59:39.547Z,6.43
2019-01-17T01:00:39.593Z,6.41
2019-01-17T01:01:39.622Z,6.46
2019-01-17T01:02:39.660Z,6.40
2019-01-17T01:03:39.697Z,6.46
2019-01-17T01:04:39.737Z,6.44
2019-01-17T01:05:39.769Z,6.43
2019-01-17T01:06:39.807Z,6.41
2019-01-17T01:07:39.843Z,6.41
2019-01-17T01:08:39.888Z,6.48
2019-01-17T01:09:39.917Z,6.41
2019-01-17T01:10:39.958Z,6.44
2019-01-17T01:11:39.996Z,6.43
2019-01-17T01:12:40.029Z,6.52
2019-01-17T01:13:40.065Z,6.48
2019-01-17T01:14:40.103Z,6.44
2019-01-17T01:15:40.141Z,6.55
2019-01-17T01:16:40.177Z,6.55
2019-01-17T01:17:40.212Z,6.48
2019-01-17T01:18:40.250Z,6.46
2019-01-17T01:19:40.289Z,6.54
2019-01-17T01:20:40.332Z,6.48
2019-01-17T01:21:40.364Z,6.44
2019-01-17T01:22:40.403Z,6.48
2019-01-17T01:23:40.439Z,6.56
2019-01-17T01:24:40.474Z,6.54
2019-01-17T01:25:40.560Z,6.49
2019-01-17T01:26:40.547Z,6.41
2019-01-17T01:27:40.589Z,6.48
2019-01-17T01:28:40.622Z,6.44
2019-01-17T01:29:40.665Z,6.43
2019-01-17T01:30:40.696Z,6.43
2019-01-17T01:31:40.740Z,6.33
2019-01-17T01:32:40.774Z,6.46
2019-01-17T01:33:40.806Z,6.30
2019-01-17T01:34:40.842Z,6.34
2019-01-17T01:35:40.882Z,6.36
2019-01-17T01:36:40.918Z,6.37
2019-01-17T01:37:40.956Z,6.30
2019-01-17T01:38:40.992Z,6.30
2019-01-17T01:39:41.028Z,6.25
2019-01-17T01:40:41.067Z,6.37
2019-01-17T01:41:41.101Z,6.34
2019-01-17T01:42:41.138Z,6.40
2019-01-17T01:43:41.178Z,6.41
2019-01-17T01:44:41.214Z,6.40
2019-01-17T01:45:41.249Z,6.37
2019-01-17T01:46:41.286Z,6.40
2019-01-17T01:47:41.325Z,6.31
2019-01-17T01:48:41.361Z,6.41
2019-01-17T01:49:41.396Z,6.28
2019-01-17T01:50:41.438Z,6.33
2019-01-17T01:51:41.471Z,6.41
2019-01-17T01:52:41.517Z,6.46
2019-01-17T01:53:41.547Z,6.38
2019-01-17T01:54:41.583Z,6.44
2019-01-17T01:55:41.622Z,6.41
2019-01-17T01:56:41.658Z,6.38
2019-01-17T01:57:41.704Z,6.41
2019-01-17T01:58:41.742Z,6.40
2019-01-17T01:59:41.767Z,6.31
2019-01-17T02:00:42.889Z,6.28
2019-01-17T02:01:41.842Z,6.36
2019-01-17T02:02:41.876Z,6.40
2019-01-17T02:03:41.916Z,6.37
2019-01-17T02:04:41.955Z,6.21
2019-01-17T02:05:41.991Z,6.37
2019-01-17T02:06:42.029Z,6.31
2019-01-17T02:07:42.065Z,6.27
2019-01-17T02:08:42.104Z,6.34
2019-01-17T02:09:42.138Z,6.37
2019-01-17T02:10:42.177Z,6.40
2019-01-17T02:11:42.214Z,6.31
2019-01-17T02:12:42.252Z,6.40
2019-01-17T02:13:42.286Z,6.43
2019-01-17T02:14:42.325Z,6.41
2019-01-17T02:15:42.410Z,6.43
2019-01-17T02:16:42.401Z,6.33
2019-01-17T02:17:42.437Z,6.28
2019-01-17T02:18:42.472Z,6.34
2019-01-17T02:19:42.507Z,6.48
2019-01-17T02:20:42.550Z,6.44
2019-01-17T02:21:42.583Z,6.38
2019-01-17T02:22:42.624Z,6.37
2019-01-17T02:23:42.657Z,6.48
2019-01-17T02:24:42.697Z,6.40
2019-01-17T02:25:42.732Z,6.43
2019-01-17T02:26:42.769Z,6.46
2019-01-17T02:27:42.817Z,6.46
2019-01-17T02:28:42.842Z,6.52
2019-01-17T02:29:42.880Z,6.44
2019-01-17T02:30:42.917Z,6.43
2019-01-17T02:31:42.955Z,6.48
2019-01-17T02:32:42.989Z,6.41
2019-01-17T02:33:43.030Z,6.49
2019-01-17T02:34:43.066Z,6.41
2019-01-17T02:35:43.104Z,6.49
2019-01-17T02:36:43.146Z,6.48
2019-01-17T02:37:43.173Z,6.43
2019-01-17T02:38:43.215Z,6.44
2019-01-17T02:39:43.261Z,6.44
2019-01-17T02:40:43.292Z,6.52
2019-01-17T02:41:43.325Z,6.46
2019-01-17T02:42:43.361Z,6.36
2019-01-17T02:43:43.399Z,6.48
2019-01-17T02:44:43.439Z,6.43
2019-01-17T02:45:43.481Z,6.34
2019-01-17T02:46:43.509Z,6.31
2019-01-17T02:47:43.555Z,6.40
2019-01-17T02:48:43.585Z,6.33
2019-01-17T02:49:43.620Z,6.41
2019-01-17T02:50:43.658Z,6.37
2019-01-17T02:51:43.696Z,6.34
2019-01-17T02:52:43.732Z,6.27
2019-01-17T02:53:43.777Z,6.37
2019-01-17T02:54:43.808Z,6.36
2019-01-17T02:55:43.845Z,6.31
2019-01-17T02:56:43.891Z,6.21
2019-01-17T02:57:43.919Z,6.22
2019-01-17T02:58:43.954Z,6.22
2019-01-17T02:59:43.992Z,6.21
2019-01-17T03:00:44.027Z,6.27
2019-01-17T03:01:44.067Z,6.18
2019-01-17T03:02:44.102Z,6.18
2019-01-17T03:03:44.142Z,6.33
2019-01-17T03:04:44.179Z,6.36
2019-01-17T03:05:44.216Z,6.40
2019-01-17T03:06:44.253Z,6.27
2019-01-17T03:07:44.292Z,6.34
2019-01-17T03:08:44.328Z,6.34
2019-01-17T03:09:44.361Z,6.38
2019-01-17T03:10:44.400Z,6.40
2019-01-17T03:11:44.437Z,6.38
2019-01-17T03:12:44.474Z,6.31
2019-01-17T03:13:44.511Z,6.33
2019-01-17T03:14:44.555Z,6.37
2019-01-17T03:15:44.583Z,6.33
2019-01-17T03:16:44.620Z,6.41
2019-01-17T03:17:44.765Z,6.38
2019-01-17T03:18:44.694Z,6.43
2019-01-17T03:19:44.734Z,6.31
2019-01-17T03:20:44.769Z,6.46
2019-01-17T03:21:44.806Z,6.40
2019-01-17T03:22:44.854Z,6.36
2019-01-17T03:23:44.882Z,6.48
2019-01-17T03:24:44.918Z,6.49
2019-01-17T03:25:44.954Z,6.48
2019-01-17T03:26:44.992Z,6.43
2019-01-17T03:27:45.028Z,6.49
2019-01-17T03:28:45.066Z,6.46
2019-01-17T03:29:45.105Z,6.43
2019-01-17T03:30:45.142Z,6.43
2019-01-17T03:31:45.178Z,6.48
2019-01-17T03:32:45.220Z,6.46
2019-01-17T03:33:45.252Z,6.46
2019-01-17T03:34:45.288Z,6.38
2019-01-17T03:35:45.326Z,6.43
2019-01-17T03:36:45.362Z,6.34
2019-01-17T03:37:45.399Z,6.38
2019-01-17T03:38:45.436Z,6.28
2019-01-17T03:39:45.476Z,6.40
2019-01-17T03:40:45.513Z,6.34
2019-01-17T03:41:45.550Z,6.44
2019-01-17T03:42:45.586Z,6.51
2019-01-17T03:43:45.626Z,6.41
2019-01-17T03:44:45.676Z,6.48
2019-01-17T03:45:45.703Z,6.44
2019-01-17T03:46:45.733Z,6.46
2019-01-17T03:47:45.773Z,6.52
2019-01-17T03:48:45.807Z,6.55
2019-01-17T03:49:45.912Z,6.55
2019-01-17T03:50:45.880Z,6.51
2019-01-17T03:51:45.921Z,6.54
2019-01-17T03:52:45.957Z,6.52
2019-01-17T03:53:45.993Z,6.55
2019-01-17T03:54:50.096Z,6.48
2019-01-17T03:55:46.068Z,6.54
2019-01-17T03:56:46.104Z,6.48
2019-01-17T03:57:46.250Z,6.48
2019-01-17T03:58:46.177Z,6.49
2019-01-17T03:59:46.214Z,6.46
2019-01-17T04:00:46.265Z,6.59
2019-01-17T04:01:46.289Z,6.48
2019-01-17T04:02:46.328Z,6.48
2019-01-17T04:03:46.364Z,6.51
2019-01-17T04:04:46.402Z,6.56
2019-01-17T04:05:46.437Z,6.52
2019-01-17T04:06:46.475Z,6.55
2019-01-17T04:07:46.515Z,6.49
2019-01-17T04:08:46.551Z,6.49
2019-01-17T04:09:46.588Z,6.59
2019-01-17T04:10:46.624Z,6.51
2019-01-17T04:11:46.662Z,6.48
2019-01-17T04:12:46.707Z,6.49
2019-01-17T04:13:46.734Z,6.46
2019-01-17T04:14:46.774Z,6.49
2019-01-17T04:15:46.810Z,6.49
2019-01-17T04:16:46.847Z,6.52
2019-01-17T04:17:46.885Z,6.59
2019-01-17T04:18:46.921Z,6.56
2019-01-17T04:19:46.959Z,6.55
2019-01-17T04:20:46.996Z,6.49
2019-01-17T04:21:47.032Z,6.51
2019-01-17T04:22:47.079Z,6.51
2019-01-17T04:23:47.108Z,6.46
2019-01-17T04:24:47.145Z,6.51
2019-01-17T04:25:47.180Z,6.51
2019-01-17T04:26:47.222Z,6.46
2019-01-17T04:27:47.254Z,6.51
2019-01-17T04:28:47.291Z,6.54
2019-01-17T04:29:47.327Z,6.61
2019-01-17T04:30:47.372Z,6.52
2019-01-17T04:31:47.403Z,6.54
2019-01-17T04:32:47.443Z,6.48
2019-01-17T04:33:47.476Z,6.48
2019-01-17T04:34:47.513Z,6.49
2019-01-17T04:35:47.602Z,6.46
2019-01-17T04:36:47.588Z,6.48
2019-01-17T04:37:47.626Z,6.51
2019-01-17T04:38:47.660Z,6.55
2019-01-17T04:39:47.701Z,6.52
2019-01-17T04:40:47.736Z,6.48
2019-01-17T04:41:47.772Z,6.56
2019-01-17T04:42:47.810Z,6.49
2019-01-17T04:43:47.849Z,6.49
2019-01-17T04:44:47.887Z,6.49
2019-01-17T04:45:47.921Z,6.55
2019-01-17T04:46:47.959Z,6.48
2019-01-17T04:47:48.004Z,6.49
2019-01-17T04:48:48.033Z,6.46
2019-01-17T04:49:48.068Z,6.54
2019-01-17T04:50:48.108Z,6.54
2019-01-17T04:51:48.144Z,6.49
2019-01-17T04:52:48.190Z,6.49
2019-01-17T04:53:48.220Z,6.48
2019-01-17T04:54:48.257Z,6.49
2019-01-17T04:55:48.293Z,6.48
2019-01-17T04:56:48.329Z,6.43
2019-01-17T04:57:48.368Z,6.36
2019-01-17T04:58:48.403Z,6.40
2019-01-17T04:59:48.438Z,6.31
2019-01-17T05:00:48.478Z,6.36
2019-01-17T05:01:48.513Z,6.36
2019-01-17T05:02:48.555Z,6.37
2019-01-17T05:03:48.587Z,6.36
2019-01-17T05:04:48.625Z,6.34
2019-01-17T05:05:48.675Z,6.31
2019-01-17T05:06:48.700Z,6.40
2019-01-17T05:07:48.737Z,6.34
2019-01-17T05:08:48.774Z,6.36
2019-01-17T05:09:48.817Z,6.38
2019-01-17T05:10:48.847Z,6.36
2019-01-17T05:11:48.884Z,6.34
2019-01-17T05:12:48.924Z,6.34
2019-01-17T05:13:48.959Z,6.43
2019-01-17T05:14:48.998Z,6.38
2019-01-17T05:15:49.044Z,6.34
2019-01-17T05:16:49.071Z,6.38
2019-01-17T05:17:49.118Z,6.37
2019-01-17T05:18:49.145Z,6.43
2019-01-17T05:19:49.184Z,6.41
2019-01-17T05:20:49.225Z,6.38
2019-01-17T05:21:49.253Z,6.37
2019-01-17T05:22:49.292Z,6.30
2019-01-17T05:23:49.331Z,6.31
2019-01-17T05:24:49.366Z,6.34
2019-01-17T05:25:49.403Z,6.31
2019-01-17T05:26:49.442Z,6.44
2019-01-17T05:27:49.478Z,6.40
2019-01-17T05:28:49.513Z,6.38
2019-01-17T05:29:49.552Z,6.38
2019-01-17T05:30:49.587Z,6.38
2019-01-17T05:31:49.627Z,6.41
2019-01-17T05:32:49.663Z,6.31
2019-01-17T05:33:49.699Z,6.44
2019-01-17T05:34:49.838Z,6.40
2019-01-17T05:35:49.773Z,6.46
2019-01-17T05:36:49.811Z,6.44
2019-01-17T05:37:49.847Z,6.46
2019-01-17T05:38:49.886Z,6.52
2019-01-17T05:39:49.921Z,6.46
2019-01-17T05:40:49.957Z,6.51
2019-01-17T05:41:49.994Z,6.41
2019-01-17T05:42:50.032Z,6.52
2019-01-17T05:43:50.070Z,6.52
2019-01-17T05:44:50.104Z,6.48
2019-01-17T05:45:50.145Z,6.48
2019-01-17T05:46:50.179Z,6.40
2019-01-17T05:47:50.218Z,6.55
2019-01-17T05:48:50.253Z,6.54
2019-01-17T05:49:50.290Z,6.58
2019-01-17T05:50:50.329Z,6.55
2019-01-17T05:51:50.368Z,6.46
2019-01-17T05:52:50.403Z,6.51
2019-01-17T05:53:50.443Z,6.52
2019-01-17T05:54:50.476Z,6.52
2019-01-17T05:55:50.518Z,6.51
2019-01-17T05:56:50.552Z,6.52
2019-01-17T05:57:50.588Z,6.54
2019-01-17T05:58:50.626Z,6.54
2019-01-17T05:59:50.674Z,6.51
2019-01-17T06:00:50.699Z,6.56
2019-01-17T06:01:50.740Z,6.58
2019-01-17T06:02:50.776Z,6.51
2019-01-17T06:03:50.811Z,6.48
2019-01-17T06:04:50.847Z,6.48
2019-01-17T06:05:50.883Z,6.49
2019-01-17T06:06:50.924Z,6.52
2019-01-17T06:07:50.957Z,6.55
2019-01-17T06:08:50.995Z,6.43
2019-01-17T06:09:51.031Z,6.41
2019-01-17T06:10:51.068Z,6.49
2019-01-17T06:11:51.106Z,6.58
2019-01-17T06:12:51.143Z,6.56
2019-01-17T06:13:51.182Z,6.46
2019-01-17T06:14:51.216Z,6.46
2019-01-17T06:15:51.256Z,6.48
2019-01-17T06:16:51.292Z,6.36
2019-01-17T06:17:51.327Z,6.44
2019-01-17T06:18:51.367Z,6.31
2019-01-17T06:19:51.403Z,6.44
2019-01-17T06:20:51.439Z,6.36
2019-01-17T06:21:51.476Z,6.31
2019-01-17T06:22:51.515Z,6.40
2019-01-17T06:23:51.561Z,6.41
2019-01-17T06:24:51.588Z,6.44
2019-01-17T06:25:51.625Z,6.48
2019-01-17T06:26:51.663Z,6.41
2019-01-17T06:27:51.701Z,6.46
2019-01-17T06:28:51.736Z,6.43
2019-01-17T06:29:51.773Z,6.41
2019-01-17T06:30:51.809Z,6.43
2019-01-17T06:31:51.846Z,6.43
2019-01-17T06:32:51.892Z,6.28
2019-01-17T06:33:51.942Z,6.31
2019-01-17T06:34:51.975Z,6.34
2019-01-17T06:35:51.995Z,6.33
2019-01-17T06:36:52.033Z,6.46
2019-01-17T06:37:52.069Z,6.41
2019-01-17T06:38:52.106Z,6.44
2019-01-17T06:39:52.145Z,6.38
2019-01-17T06:40:52.188Z,6.41
2019-01-17T06:41:52.217Z,6.44
2019-01-17T06:42:52.255Z,6.48
2019-01-17T06:43:52.295Z,6.44
2019-01-17T06:44:52.332Z,6.48
2019-01-17T06:45:52.371Z,6.44
2019-01-17T06:46:52.407Z,6.43
2019-01-17T06:47:52.440Z,6.44
2019-01-17T06:48:52.480Z,6.44
2019-01-17T06:49:52.515Z,6.30
2019-01-17T06:50:52.551Z,6.41
2019-01-17T06:51:52.591Z,6.36
2019-01-17T06:52:52.626Z,6.33
2019-01-17T06:53:52.663Z,6.40
2019-01-17T06:54:52.705Z,6.41
2019-01-17T06:55:52.743Z,6.40
2019-01-17T06:56:52.775Z,6.40
2019-01-17T06:57:52.813Z,6.33
2019-01-17T06:58:52.850Z,6.37
2019-01-17T06:59:52.897Z,6.38
2019-01-17T07:00:52.925Z,6.43
2019-01-17T07:01:52.960Z,6.30
2019-01-17T07:02:53.001Z,6.31
2019-01-17T07:03:53.036Z,6.48
2019-01-17T07:04:53.077Z,6.41
2019-01-17T07:05:53.108Z,6.34
2019-01-17T07:06:53.144Z,6.41
2019-01-17T07:07:53.183Z,6.40
2019-01-17T07:08:53.220Z,6.44
2019-01-17T07:09:53.257Z,6.44
2019-01-17T07:10:53.295Z,6.34
2019-01-17T07:11:53.331Z,6.41
2019-01-17T07:12:53.368Z,6.37
2019-01-17T07:13:53.404Z,6.28
2019-01-17T07:14:53.441Z,6.44
2019-01-17T07:15:53.489Z,6.33
2019-01-17T07:16:53.519Z,6.38
2019-01-17T07:17:53.554Z,6.31
2019-01-17T07:18:53.741Z,6.40
2019-01-17T07:19:53.629Z,6.46
2019-01-17T07:20:53.666Z,6.44
2019-01-17T07:21:53.701Z,6.49
2019-01-17T07:22:53.743Z,6.43
2019-01-17T07:23:53.778Z,6.49
2019-01-17T07:24:53.813Z,6.40
2019-01-17T07:25:53.859Z,6.43
2019-01-17T07:26:53.889Z,6.48
2019-01-17T07:27:53.926Z,6.48
2019-01-17T07:28:53.964Z,6.41
2019-01-17T07:29:54.000Z,6.48
2019-01-17T07:30:54.088Z,6.55
2019-01-17T07:31:54.074Z,6.44
2019-01-17T07:32:54.111Z,6.55
2019-01-17T07:33:54.147Z,6.52
2019-01-17T07:34:54.184Z,6.52
2019-01-17T07:35:54.224Z,6.49
2019-01-17T07:36:54.260Z,6.49
2019-01-17T07:37:54.295Z,6.48
2019-01-17T07:38:54.333Z,6.49
2019-01-17T07:39:54.373Z,6.55
2019-01-17T07:40:54.409Z,6.59
2019-01-17T07:41:54.445Z,6.61
2019-01-17T07:42:54.483Z,6.59
2019-01-17T07:43:54.520Z,6.55
2019-01-17T07:44:54.558Z,6.55
2019-01-17T07:45:54.604Z,6.64
2019-01-17T07:46:54.633Z,6.71
2019-01-17T07:47:54.669Z,6.67
2019-01-17T07:48:54.706Z,6.62
2019-01-17T07:49:54.743Z,6.64
2019-01-17T07:50:54.783Z,6.77
2019-01-17T07:51:54.824Z,6.71
2019-01-17T07:52:54.860Z,6.74
2019-01-17T07:53:54.893Z,6.84
2019-01-17T07:54:54.929Z,6.87
2019-01-17T07:55:54.976Z,6.87
2019-01-17T07:56:55.005Z,6.87
2019-01-17T07:57:55.044Z,6.89
2019-01-17T07:58:55.083Z,6.89
2019-01-17T07:59:55.119Z,6.89
2019-01-17T08:00:55.154Z,6.92
2019-01-17T08:01:55.202Z,6.95
2019-01-17T08:02:55.232Z,6.98
2019-01-17T08:03:55.270Z,7.07
2019-01-17T08:04:55.305Z,6.99
2019-01-17T08:05:55.346Z,7.10
2019-01-17T08:06:56.855Z,7.09
2019-01-17T08:07:55.426Z,6.99
2019-01-17T08:08:55.462Z,7.05
2019-01-17T08:09:55.493Z,6.99
2019-01-17T08:10:55.536Z,7.03
2019-01-17T08:11:55.569Z,7.09
2019-01-17T08:12:55.606Z,7.03
2019-01-17T08:13:55.640Z,7.06
2019-01-17T08:14:55.687Z,7.06
2019-01-17T08:15:55.717Z,7.12
2019-01-17T08:16:55.763Z,7.21
2019-01-17T08:17:55.795Z,7.20
2019-01-17T08:18:55.829Z,7.16
2019-01-17T08:19:55.888Z,7.15
2019-01-17T08:20:55.903Z,7.23
2019-01-17T08:21:55.959Z,7.20
2019-01-17T08:22:55.980Z,7.20
2019-01-17T08:23:56.018Z,7.25
2019-01-17T08:24:56.084Z,7.17
2019-01-17T08:25:56.104Z,7.24
2019-01-17T08:26:56.138Z,7.21
2019-01-17T08:27:56.328Z,7.15
2019-01-17T08:28:56.289Z,7.12
2019-01-17T08:29:56.577Z,7.20
2019-01-17T08:30:56.282Z,7.21
2019-01-17T08:31:56.368Z,7.16
2019-01-17T08:32:56.357Z,7.16
2019-01-17T08:33:56.394Z,7.27
2019-01-17T08:34:56.432Z,7.28
2019-01-17T08:35:56.472Z,7.28
2019-01-17T08:36:56.508Z,7.25
2019-01-17T08:37:56.546Z,7.31
2019-01-17T08:38:56.584Z,7.42
2019-01-17T08:39:56.640Z,7.37
2019-01-17T08:40:56.671Z,7.35
2019-01-17T08:41:56.694Z,7.46
2019-01-17T08:42:56.732Z,7.45
2019-01-17T08:43:56.769Z,7.48
2019-01-17T08:44:56.809Z,7.53
2019-01-17T08:45:56.910Z,7.53
2019-01-17T08:46:56.883Z,7.60
2019-01-17T08:47:56.922Z,7.55
2019-01-17T08:48:56.968Z,7.49
2019-01-17T08:49:56.998Z,7.58
2019-01-17T08:50:57.035Z,7.58
2019-01-17T08:51:57.078Z,7.53
2019-01-17T08:52:57.112Z,7.57
2019-01-17T08:53:57.159Z,7.58
2019-01-17T08:54:57.189Z,7.57
2019-01-17T08:56:00.714Z,7.50
2019-01-17T08:56:57.264Z,7.53
2019-01-17T08:57:57.299Z,7.63
2019-01-17T08:58:57.336Z,7.52
2019-01-17T08:59:57.380Z,7.55
2019-01-17T09:00:57.412Z,7.61
2019-01-17T09:01:57.451Z,7.52
2019-01-17T09:02:57.545Z,7.60
2019-01-17T09:03:57.537Z,7.61
2019-01-17T09:04:57.587Z,7.61
2019-01-17T09:05:57.606Z,7.60
2019-01-17T09:06:57.649Z,7.67
2019-01-17T09:07:57.678Z,7.71
2019-01-17T09:08:57.970Z,7.71
2019-01-17T09:09:57.756Z,7.75
2019-01-17T09:10:57.794Z,7.74
2019-01-17T09:11:57.830Z,7.93
2019-01-17T09:12:57.871Z,7.79
2019-01-17T09:13:57.903Z,7.86
2019-01-17T09:14:57.945Z,7.92
2019-01-17T09:15:57.988Z,7.85
2019-01-17T09:16:58.021Z,7.93
2019-01-17T09:17:58.062Z,7.85
2019-01-17T09:18:58.095Z,7.83
2019-01-17T09:19:58.140Z,7.83
2019-01-17T09:20:58.170Z,7.83
2019-01-17T09:21:58.206Z,7.83
2019-01-17T09:22:58.247Z,7.79
2019-01-17T09:23:58.283Z,7.89
2019-01-17T09:24:58.329Z,7.89
2019-01-17T09:25:58.365Z,8.01
2019-01-17T09:26:58.398Z,8.00
2019-01-17T09:27:58.436Z,8.05
2019-01-17T09:28:58.476Z,8.07
2019-01-17T09:29:58.515Z,8.04
2019-01-17T09:30:58.551Z,7.98
2019-01-17T09:31:58.596Z,8.02
2019-01-17T09:32:58.625Z,8.01
2019-01-17T09:33:58.683Z,8.02
2019-01-17T09:34:58.701Z,8.01
2019-01-17T09:35:58.749Z,7.97
2019-01-17T09:36:58.803Z,8.00
2019-01-17T09:37:58.816Z,8.04
2019-01-17T09:38:58.868Z,7.97
2019-01-17T09:39:58.892Z,8.07
2019-01-17T09:40:58.930Z,8.05
2019-01-17T09:41:58.979Z,8.01
2019-01-17T09:42:59.033Z,8.10
2019-01-17T09:43:59.048Z,8.12
2019-01-17T09:44:59.132Z,8.19
2019-01-17T09:45:59.120Z,8.15
2019-01-17T09:46:59.168Z,8.12
2019-01-17T09:47:59.196Z,8.19
2019-01-17T09:48:59.235Z,8.18
2019-01-17T09:49:59.272Z,8.16
2019-01-17T09:50:59.340Z,8.15
2019-01-17T09:51:59.357Z,8.16
2019-01-17T09:52:59.387Z,8.18
2019-01-17T09:53:59.430Z,8.20
2019-01-17T09:54:59.461Z,8.18
2019-01-17T09:55:59.509Z,8.11
2019-01-17T09:56:59.542Z,8.26
2019-01-17T09:57:59.577Z,8.22
2019-01-17T09:58:59.615Z,8.30
2019-01-17T09:59:59.654Z,8.43
2019-01-17T10:00:59.692Z,8.38
2019-01-17T10:01:59.731Z,8.40
2019-01-17T10:02:59.781Z,8.41
2019-01-17T10:03:59.814Z,8.41
2019-01-17T10:04:59.846Z,8.40
2019-01-17T10:05:59.886Z,8.48
2019-01-17T10:06:59.922Z,8.45
2019-01-17T10:07:59.963Z,8.37
2019-01-17T10:09:00.009Z,8.43
2019-01-17T10:10:00.039Z,8.44
2019-01-17T10:11:00.076Z,8.38
2019-01-17T10:12:00.114Z,8.37
2019-01-17T10:13:00.155Z,8.40
2019-01-17T10:14:00.191Z,8.34
2019-01-17T10:15:00.228Z,8.30
2019-01-17T10:16:00.265Z,8.34
2019-01-17T10:17:00.305Z,8.30
2019-01-17T10:18:00.342Z,8.30
2019-01-17T10:19:00.379Z,8.33
2019-01-17T10:20:00.419Z,8.34
2019-01-17T10:21:00.457Z,8.36
2019-01-17T10:22:00.494Z,8.33
2019-01-17T10:23:00.547Z,8.30
2019-01-17T10:24:00.635Z,8.29
2019-01-17T10:25:00.628Z,8.40
2019-01-17T10:26:00.651Z,8.34
2019-01-17T10:27:00.691Z,8.36
2019-01-17T10:28:00.726Z,8.50
2019-01-17T10:29:00.771Z,8.48
2019-01-17T10:30:00.806Z,8.56
2019-01-17T10:31:00.840Z,8.61
2019-01-17T10:32:00.881Z,8.58
2019-01-17T10:33:00.922Z,8.62
2019-01-17T10:34:00.955Z,8.63
2019-01-17T10:35:00.996Z,8.62
2019-01-17T10:36:01.033Z,8.62
2019-01-17T10:37:01.077Z,8.68
2019-01-17T10:38:01.111Z,8.71
2019-01-17T10:39:01.147Z,8.80
2019-01-17T10:40:01.190Z,8.80
2019-01-17T10:41:01.226Z,8.86
2019-01-17T10:42:01.263Z,8.81
2019-01-17T10:43:01.301Z,8.86
2019-01-17T10:44:01.338Z,8.89
2019-01-17T10:45:01.385Z,8.83
2019-01-17T10:46:01.417Z,8.92
2019-01-17T10:47:01.467Z,8.91
2019-01-17T10:48:01.500Z,8.99
2019-01-17T10:49:01.534Z,8.89
2019-01-17T10:50:01.582Z,8.94
2019-01-17T10:51:01.620Z,8.98
2019-01-17T10:52:01.648Z,8.96
2019-01-17T10:53:01.686Z,9.05
2019-01-17T10:54:01.725Z,9.14
2019-01-17T10:55:01.764Z,9.21
2019-01-17T10:56:01.801Z,9.24
2019-01-17T10:57:01.847Z,9.40
2019-01-17T10:58:01.893Z,9.39
2019-01-17T10:59:01.929Z,9.36
2019-01-17T11:00:01.987Z,9.21
2019-01-17T11:01:01.996Z,9.20
2019-01-17T11:02:02.034Z,9.08
2019-01-17T11:03:02.090Z,9.08
2019-01-17T11:04:02.115Z,9.14
2019-01-17T11:05:02.151Z,9.24
2019-01-17T11:06:02.190Z,9.36
2019-01-17T11:07:02.232Z,9.38
2019-01-17T11:08:02.270Z,9.43
2019-01-17T11:09:02.495Z,9.57
2019-01-17T11:10:02.369Z,9.51
2019-01-17T11:11:02.394Z,9.48
2019-01-17T11:12:02.506Z,9.32
2019-01-17T11:13:02.482Z,9.23
2019-01-17T11:14:02.516Z,9.14
2019-01-17T11:15:02.541Z,9.11
2019-01-17T11:16:02.598Z,8.99
2019-01-17T11:17:02.621Z,8.91
2019-01-17T11:18:02.659Z,8.94
2019-01-17T11:19:02.703Z,9.01
2019-01-17T11:20:02.735Z,8.95
2019-01-17T11:21:02.778Z,8.92
2019-01-17T11:22:02.812Z,9.04
2019-01-17T11:23:02.857Z,9.20
2019-01-17T11:24:02.890Z,9.17
2019-01-17T11:25:02.935Z,9.29
2019-01-17T11:26:02.976Z,9.28
2019-01-17T11:27:03.013Z,9.36
2019-01-17T11:28:03.050Z,9.32
2019-01-17T11:29:03.085Z,9.29
2019-01-17T11:30:03.130Z,9.39
2019-01-17T11:31:03.163Z,9.23
2019-01-17T11:32:03.204Z,9.28
2019-01-17T11:33:03.239Z,9.21
2019-01-17T11:34:03.290Z,8.94
2019-01-17T11:35:03.318Z,8.92
2019-01-17T11:36:03.367Z,8.89
2019-01-17T11:37:03.404Z,8.70
2019-01-17T11:38:03.437Z,8.68
2019-01-17T11:39:03.475Z,8.55
2019-01-17T11:40:03.520Z,8.47
2019-01-17T11:41:03.563Z,8.36
2019-01-17T11:42:03.590Z,8.34
2019-01-17T11:43:03.638Z,8.45
2019-01-17T11:44:03.679Z,8.50
2019-01-17T11:45:03.705Z,8.59
2019-01-17T11:46:03.744Z,8.59
2019-01-17T11:47:03.786Z,8.61
2019-01-17T11:48:03.822Z,8.58
2019-01-17T11:49:03.867Z,8.59
2019-01-17T11:50:03.898Z,8.55
2019-01-17T11:51:03.947Z,8.43
2019-01-17T11:52:03.977Z,8.45
2019-01-17T11:53:04.016Z,8.50
2019-01-17T11:54:04.054Z,8.61
2019-01-17T11:55:04.091Z,8.66
2019-01-17T11:56:04.131Z,8.73
2019-01-17T11:57:04.170Z,8.83
2019-01-17T11:58:04.206Z,8.83
2019-01-17T11:59:04.247Z,8.63
2019-01-17T12:00:04.287Z,8.59
2019-01-17T12:01:04.324Z,8.50
2019-01-17T12:02:04.365Z,8.45
2019-01-17T12:03:04.404Z,8.53
2019-01-17T12:04:04.440Z,8.59
2019-01-17T12:05:04.615Z,8.58
2019-01-17T12:06:04.519Z,8.68
2019-01-17T12:07:04.554Z,8.61
2019-01-17T12:08:04.601Z,8.71
2019-01-17T12:09:04.633Z,8.70
2019-01-17T12:10:04.669Z,8.68
2019-01-17T12:11:04.715Z,8.74
2019-01-17T12:12:04.763Z,8.81
2019-01-17T12:13:04.798Z,8.86
2019-01-17T12:14:04.825Z,8.89
2019-01-17T12:15:04.865Z,8.86
2019-01-17T12:16:04.953Z,9.01
2019-01-17T12:17:04.942Z,8.94
2019-01-17T12:18:04.982Z,8.91
2019-01-17T12:19:05.023Z,8.98
2019-01-17T12:20:05.056Z,9.05
2019-01-17T12:21:05.113Z,9.02
2019-01-17T12:22:05.134Z,8.95
2019-01-17T12:23:05.174Z,8.98
2019-01-17T12:24:05.223Z,8.98
2019-01-17T12:25:05.252Z,9.05
2019-01-17T12:26:05.295Z,9.08
2019-01-17T12:27:05.327Z,9.08
2019-01-17T12:28:05.365Z,9.10
2019-01-17T12:29:05.410Z,9.05
2019-01-17T12:30:05.443Z,8.94
2019-01-17T12:31:05.484Z,8.98
2019-01-17T12:32:05.520Z,9.02
2019-01-17T12:33:05.558Z,8.89
2019-01-17T12:34:05.601Z,8.91
2019-01-17T12:35:05.636Z,8.92
2019-01-17T12:36:05.675Z,8.89
2019-01-17T12:37:05.714Z,8.94
2019-01-17T12:38:05.752Z,8.92
2019-01-17T12:39:05.790Z,8.99
2019-01-17T12:40:05.831Z,8.94
2019-01-17T12:41:05.877Z,8.96
2019-01-17T12:42:06.131Z,8.94
2019-01-17T12:43:06.152Z,8.86
2019-01-17T12:44:05.989Z,9.04
2019-01-17T12:45:06.038Z,8.94
2019-01-17T12:46:06.080Z,8.96
2019-01-17T12:47:06.112Z,8.96
2019-01-17T12:48:06.140Z,8.87
2019-01-17T12:49:06.663Z,8.95
2019-01-17T12:50:06.217Z,8.94
2019-01-17T12:51:06.254Z,8.80
2019-01-17T12:52:06.555Z,8.76
2019-01-17T12:53:06.332Z,8.83
2019-01-17T12:54:06.395Z,8.86
2019-01-17T12:55:06.417Z,8.83
2019-01-17T12:56:06.447Z,8.95
2019-01-17T12:57:06.488Z,9.10
2019-01-17T12:58:06.531Z,9.26
2019-01-17T12:59:06.566Z,9.23
2019-01-17T13:00:07.836Z,9.17
2019-01-17T13:01:06.657Z,9.23
2019-01-17T13:02:06.678Z,9.24
2019-01-17T13:03:06.723Z,9.26
2019-01-17T13:04:06.764Z,9.15
2019-01-17T13:05:06.808Z,9.14
2019-01-17T13:06:06.835Z,9.11
2019-01-17T13:07:06.877Z,8.96
2019-01-17T13:08:06.918Z,8.86
2019-01-17T13:09:07.016Z,8.94
2019-01-17T13:10:06.990Z,8.91
2019-01-17T13:11:07.028Z,8.91
2019-01-17T13:12:07.075Z,8.95
2019-01-17T13:13:07.114Z,8.94
2019-01-17T13:14:07.146Z,8.89
2019-01-17T13:15:07.185Z,9.08
2019-01-17T13:16:07.258Z,9.14
2019-01-17T13:17:07.265Z,9.21
2019-01-17T13:18:07.309Z,9.21
2019-01-17T13:19:07.351Z,9.39